createdAt,value
2023-04-03T00:01:20.921Z,2.31
2023-04-03T00:03:48.816Z,2.33
2023-04-03T00:06:16.851Z,2.29
2023-04-03T00:08:45.018Z,2.26
2023-04-03T00:11:12.833Z,2.28
2023-04-03T00:13:41.048Z,2.28
2023-04-03T00:16:10.260Z,2.27
2023-04-03T00:18:39.119Z,2.24
2023-04-03T00:21:07.738Z,2.20
2023-04-03T00:23:36.195Z,2.13
2023-04-03T00:26:04.224Z,2.07
2023-04-03T00:28:31.916Z,2.01
2023-04-03T00:30:59.708Z,1.95
2023-04-03T00:33:27.664Z,1.87
2023-04-03T00:35:56.106Z,1.82
2023-04-03T00:38:23.834Z,1.78
2023-04-03T00:40:51.586Z,1.72
2023-04-03T00:43:25.241Z,1.66
2023-04-03T00:45:56.220Z,1.62
2023-04-03T00:48:32.150Z,1.59
2023-04-03T00:51:01.400Z,1.54
2023-04-03T00:53:55.566Z,1.50
2023-04-03T00:56:27.953Z,1.44
2023-04-03T00:59:12.874Z,1.38
2023-04-03T01:01:41.079Z,1.35
2023-04-03T01:04:30.952Z,1.31
2023-04-03T01:07:06.798Z,1.27
2023-04-03T01:09:35.046Z,1.23
2023-04-03T01:12:21.691Z,1.19
2023-04-03T01:14:52.643Z,1.14
2023-04-03T01:17:31.967Z,1.10
2023-04-03T01:20:12.018Z,1.05
2023-04-03T01:22:55.480Z,1.00
2023-04-03T01:25:23.713Z,0.97
2023-04-03T01:27:51.859Z,0.93
2023-04-03T01:30:23.974Z,0.91
2023-04-03T01:32:51.694Z,0.88
2023-04-03T01:35:19.917Z,0.85
2023-04-03T01:37:47.642Z,0.83
2023-04-03T01:40:15.464Z,0.79
2023-04-03T01:42:43.287Z,0.78
2023-04-03T01:45:11.148Z,0.75
2023-04-03T01:47:38.953Z,0.73
2023-04-03T01:50:07.417Z,0.70
2023-04-03T01:52:35.685Z,0.68
2023-04-03T01:55:03.609Z,0.65
2023-04-03T01:57:32.293Z,0.62
2023-04-03T01:59:59.987Z,0.60
2023-04-03T02:02:27.837Z,0.56
2023-04-03T02:04:55.973Z,0.53
2023-04-03T02:07:23.696Z,0.51
2023-04-03T02:09:51.436Z,0.47
2023-04-03T02:12:19.861Z,0.45
2023-04-03T02:14:47.902Z,0.43
2023-04-03T02:17:16.029Z,0.40
2023-04-03T02:19:43.791Z,0.38
2023-04-03T02:22:11.534Z,0.35
2023-04-03T02:24:41.353Z,0.33
2023-04-03T02:27:09.043Z,0.32
2023-04-03T02:29:36.868Z,0.39
2023-04-03T02:32:06.337Z,0.32
2023-04-03T02:34:34.461Z,0.26
2023-04-03T02:37:02.392Z,0.21
2023-04-03T02:39:30.448Z,0.18
2023-04-03T02:41:58.965Z,0.16
2023-04-03T02:44:26.957Z,0.14
2023-04-03T02:46:54.741Z,0.12
2023-04-03T02:49:22.592Z,0.08
2023-04-03T02:51:50.274Z,0.07
2023-04-03T02:54:17.986Z,0.05
2023-04-03T02:56:49.043Z,0.03
2023-04-03T02:59:17.037Z,-0.00
2023-04-03T03:01:46.624Z,-0.03
2023-04-03T03:04:14.754Z,-0.05
2023-04-03T03:06:44.748Z,-0.04
2023-04-03T03:09:14.051Z,-0.03
2023-04-03T03:11:44.176Z,-0.02
2023-04-03T03:14:11.988Z,-0.00
2023-04-03T03:16:39.717Z,-0.00
2023-04-03T03:19:07.811Z,-0.01
2023-04-03T03:21:36.073Z,-0.01
2023-04-03T03:24:04.158Z,-0.04
2023-04-03T03:26:31.963Z,-0.07
2023-04-03T03:28:59.700Z,-0.08
2023-04-03T03:31:28.169Z,-0.09
2023-04-03T03:33:56.073Z,-0.12
2023-04-03T03:36:24.077Z,-0.12
2023-04-03T03:38:51.960Z,-0.14
2023-04-03T03:41:19.964Z,-0.16
2023-04-03T03:43:48.564Z,-0.19
2023-04-03T03:46:16.833Z,-0.21
2023-04-03T03:48:45.445Z,-0.23
2023-04-03T03:51:13.339Z,-0.26
2023-04-03T03:53:41.270Z,-0.27
2023-04-03T03:56:11.631Z,-0.28
2023-04-03T03:58:40.267Z,-0.29
2023-04-03T04:01:08.579Z,-0.32
2023-04-03T04:03:41.410Z,-0.34
2023-04-03T04:06:10.549Z,-0.35
2023-04-03T04:08:38.710Z,-0.37
2023-04-03T04:11:08.334Z,-0.39
2023-04-03T04:13:36.365Z,-0.40
2023-04-03T04:16:05.539Z,-0.42
2023-04-03T04:18:34.398Z,-0.42
2023-04-03T04:21:02.422Z,-0.45
2023-04-03T04:23:30.492Z,-0.47
2023-04-03T04:25:59.423Z,-0.48
2023-04-03T04:28:27.970Z,-0.50
2023-04-03T04:30:56.359Z,-0.52
2023-04-03T04:33:24.431Z,-0.53
2023-04-03T04:35:52.957Z,-0.53
2023-04-03T04:38:21.573Z,-0.53
2023-04-03T04:40:50.087Z,-0.56
2023-04-03T04:43:18.200Z,-0.57
2023-04-03T04:45:47.187Z,-0.57
2023-04-03T04:48:15.593Z,-0.57
2023-04-03T04:50:43.394Z,-0.57
2023-04-03T04:53:11.320Z,-0.57
2023-04-03T04:55:39.224Z,-0.56
2023-04-03T04:58:07.614Z,-0.54
2023-04-03T05:00:36.783Z,-0.53
2023-04-03T05:03:04.807Z,-0.51
2023-04-03T05:05:35.309Z,-0.48
2023-04-03T05:08:05.036Z,-0.46
2023-04-03T05:10:33.389Z,-0.44
2023-04-03T05:13:01.137Z,-0.40
2023-04-03T05:15:28.996Z,-0.34
2023-04-03T05:17:57.051Z,-0.27
2023-04-03T05:20:24.959Z,-0.21
2023-04-03T05:22:53.475Z,-0.15
2023-04-03T05:25:21.561Z,-0.10
2023-04-03T05:27:49.542Z,-0.05
2023-04-03T05:30:18.342Z,-0.01
2023-04-03T05:32:46.451Z,0.07
2023-04-03T05:35:20.663Z,0.15
2023-04-03T05:37:50.006Z,0.24
2023-04-03T05:40:19.656Z,0.29
2023-04-03T05:42:49.170Z,0.31
2023-04-03T05:45:17.759Z,0.32
2023-04-03T05:47:45.802Z,0.34
2023-04-03T05:50:13.970Z,0.41
2023-04-03T05:52:46.654Z,0.50
2023-04-03T05:55:14.904Z,0.61
2023-04-03T05:57:42.730Z,0.72
2023-04-03T06:00:15.437Z,0.81
2023-04-03T06:02:44.336Z,0.91
2023-04-03T06:05:17.171Z,1.02
2023-04-03T06:07:45.719Z,1.12
2023-04-03T06:10:14.670Z,1.23
2023-04-03T06:12:42.765Z,1.30
2023-04-03T06:15:11.387Z,1.38
2023-04-03T06:17:40.565Z,1.49
2023-04-03T06:20:10.530Z,1.57
2023-04-03T06:22:39.263Z,1.64
2023-04-03T06:25:07.492Z,1.71
2023-04-03T06:27:35.456Z,1.80
2023-04-03T06:30:03.394Z,1.89
2023-04-03T06:32:31.318Z,1.96
2023-04-03T06:34:59.412Z,2.04
2023-04-03T06:37:27.272Z,2.07
2023-04-03T06:39:55.588Z,2.07
2023-04-03T06:42:24.360Z,2.11
2023-04-03T06:45:01.398Z,2.15
2023-04-03T06:47:29.289Z,2.22
2023-04-03T06:49:57.423Z,2.32
2023-04-03T06:52:25.264Z,2.38
2023-04-03T06:54:58.013Z,2.42
2023-04-03T06:57:26.210Z,2.46
2023-04-03T06:59:53.982Z,2.51
2023-04-03T07:02:22.041Z,2.56
2023-04-03T07:04:49.902Z,2.62
2023-04-03T07:07:18.856Z,2.75
2023-04-03T07:09:49.003Z,2.86
2023-04-03T07:12:17.148Z,2.95
2023-04-03T07:14:45.005Z,3.04
2023-04-03T07:17:12.700Z,3.21
2023-04-03T07:19:40.387Z,3.45
2023-04-03T07:22:08.731Z,3.50
2023-04-03T07:24:36.960Z,3.51
2023-04-03T07:27:04.710Z,3.51
2023-04-03T07:29:32.906Z,3.55
2023-04-03T07:32:00.933Z,3.64
2023-04-03T07:34:28.912Z,3.70
2023-04-03T07:36:57.677Z,3.75
2023-04-03T07:39:25.918Z,3.81
2023-04-03T07:41:53.741Z,3.87
2023-04-03T07:44:21.691Z,3.99
2023-04-03T07:46:49.536Z,4.13
2023-04-03T07:49:19.183Z,4.27
2023-04-03T07:51:47.639Z,4.40
2023-04-03T07:54:16.178Z,4.46
2023-04-03T07:56:44.008Z,4.54
2023-04-03T07:59:12.503Z,4.55
2023-04-03T08:01:40.249Z,4.50
2023-04-03T08:04:08.156Z,4.46
2023-04-03T08:06:45.528Z,4.49
2023-04-03T08:09:18.163Z,4.61
2023-04-03T08:11:46.836Z,4.72
2023-04-03T08:14:17.934Z,4.68
2023-04-03T08:16:47.073Z,4.61
2023-04-03T08:19:25.507Z,4.62
2023-04-03T08:21:57.936Z,4.71
2023-04-03T08:24:26.289Z,4.79
2023-04-03T08:26:53.980Z,4.88
2023-04-03T08:29:22.364Z,5.02
2023-04-03T08:31:51.284Z,5.17
2023-04-03T08:34:20.417Z,5.36
2023-04-03T08:36:48.376Z,5.69
2023-04-03T08:39:16.137Z,6.04
2023-04-03T08:41:47.343Z,6.34
2023-04-03T08:44:48.083Z,6.49
2023-04-03T08:47:29.117Z,6.71
2023-04-03T08:50:00.461Z,6.84
2023-04-03T08:52:46.349Z,7.03
2023-04-03T08:55:28.108Z,7.03
2023-04-03T08:58:04.432Z,6.96
2023-04-03T09:00:51.704Z,7.10
2023-04-03T09:03:21.802Z,7.18
2023-04-03T09:05:54.593Z,6.97
2023-04-03T09:08:24.104Z,6.63
2023-04-03T09:11:16.874Z,6.51
2023-04-03T09:13:49.746Z,6.69
2023-04-03T09:16:32.625Z,7.00
2023-04-03T09:19:21.349Z,7.37
2023-04-03T09:21:49.251Z,7.78
2023-04-03T09:24:18.585Z,8.17
2023-04-03T09:26:49.658Z,8.12
2023-04-03T09:29:20.578Z,7.95
2023-04-03T09:31:51.953Z,7.83
2023-04-03T09:34:32.510Z,7.68
2023-04-03T09:37:07.114Z,7.79
2023-04-03T09:39:55.453Z,8.13
2023-04-03T09:42:25.764Z,8.59
2023-04-03T09:45:05.922Z,8.89
2023-04-03T09:47:37.238Z,9.20
2023-04-03T09:50:25.396Z,9.44
2023-04-03T09:52:53.208Z,9.44
2023-04-03T09:55:28.116Z,9.40
2023-04-03T09:58:04.709Z,9.55
2023-04-03T10:00:37.194Z,9.92
2023-04-03T10:03:06.748Z,9.98
2023-04-03T10:05:36.462Z,9.62
2023-04-03T10:08:16.299Z,9.15
2023-04-03T10:10:49.488Z,9.05
2023-04-03T10:13:25.597Z,9.45
2023-04-03T10:16:15.966Z,9.99
2023-04-03T10:18:50.908Z,10.15
2023-04-03T10:21:41.435Z,9.81
2023-04-03T10:24:12.167Z,9.19
2023-04-03T10:26:52.258Z,8.71
2023-04-03T10:30:08.400Z,8.23
2023-04-03T10:32:55.007Z,7.84
2023-04-03T10:35:22.683Z,7.57
2023-04-03T10:38:09.614Z,7.63
2023-04-03T10:40:51.871Z,8.04
2023-04-03T10:43:34.293Z,8.31
2023-04-03T10:46:16.803Z,8.52
2023-04-03T10:49:03.570Z,9.01
2023-04-03T10:51:49.020Z,9.70
2023-04-03T10:54:30.544Z,10.31
2023-04-03T10:57:11.960Z,10.85
2023-04-03T11:00:00.957Z,11.16
2023-04-03T11:02:43.188Z,11.39
2023-04-03T11:05:29.358Z,11.68
2023-04-03T11:08:00.861Z,11.73
2023-04-03T11:10:37.921Z,11.59
2023-04-03T11:13:29.177Z,11.16
2023-04-03T11:15:58.867Z,10.62
2023-04-03T11:18:46.044Z,10.07
2023-04-03T11:21:35.790Z,9.41
2023-04-03T11:24:14.687Z,8.80
2023-04-03T11:26:43.373Z,8.34
2023-04-03T11:29:34.120Z,8.05
2023-04-03T11:32:24.518Z,7.88
2023-04-03T11:34:57.638Z,7.97
2023-04-03T11:37:47.268Z,8.45
2023-04-03T11:40:21.071Z,9.14
2023-04-03T11:43:01.411Z,9.78
2023-04-03T11:45:52.146Z,10.25
2023-04-03T11:48:24.848Z,10.19
2023-04-03T11:50:53.304Z,9.92
2023-04-03T11:53:35.542Z,9.51
2023-04-03T11:56:03.423Z,8.99
2023-04-03T11:58:35.926Z,8.59
2023-04-03T12:01:05.630Z,8.32
2023-04-03T12:03:34.860Z,8.16
2023-04-03T12:06:06.414Z,8.11
2023-04-03T12:08:34.234Z,8.20
2023-04-03T12:11:10.915Z,8.29
2023-04-03T12:13:58.533Z,8.45
2023-04-03T12:16:38.363Z,8.59
2023-04-03T12:19:15.687Z,8.61
2023-04-03T12:21:49.680Z,8.52
2023-04-03T12:24:17.595Z,8.35
2023-04-03T12:26:58.154Z,8.09
2023-04-03T12:29:41.398Z,7.78
2023-04-03T12:32:42.754Z,7.48
2023-04-03T12:35:30.779Z,7.35
2023-04-03T12:38:11.652Z,7.50
2023-04-03T12:40:56.261Z,7.62
2023-04-03T12:43:52.644Z,7.52
2023-04-03T12:46:23.988Z,7.45
2023-04-03T12:48:56.454Z,7.65
2023-04-03T12:51:30.323Z,7.74
2023-04-03T12:54:03.656Z,7.79
2023-04-03T12:56:35.233Z,7.96
2023-04-03T12:59:26.175Z,8.15
2023-04-03T13:02:03.987Z,8.24
2023-04-03T13:04:33.349Z,8.16
2023-04-03T13:07:01.371Z,8.06
2023-04-03T13:09:31.807Z,8.09
2023-04-03T13:12:04.606Z,8.27
2023-04-03T13:14:34.482Z,8.48
2023-04-03T13:17:15.939Z,8.57
2023-04-03T13:19:47.050Z,8.56
2023-04-03T13:22:33.847Z,8.40
2023-04-03T13:25:07.723Z,8.08
2023-04-03T13:27:36.189Z,7.82
2023-04-03T13:30:05.114Z,7.64
2023-04-03T13:32:33.919Z,7.55
2023-04-03T13:35:15.461Z,7.67
2023-04-03T13:37:56.455Z,7.86
2023-04-03T13:40:27.958Z,7.84
2023-04-03T13:43:03.420Z,7.70
2023-04-03T13:45:33.467Z,7.46
2023-04-03T13:48:23.640Z,7.21
2023-04-03T13:50:55.425Z,6.96
2023-04-03T13:53:23.981Z,6.76
2023-04-03T13:56:05.486Z,6.64
2023-04-03T13:58:34.572Z,6.55
2023-04-03T14:01:54.194Z,6.53
2023-04-03T14:04:28.810Z,6.58
2023-04-03T14:06:57.464Z,6.59
2023-04-03T14:09:28.022Z,6.56
2023-04-03T14:12:01.441Z,6.49
2023-04-03T14:14:33.187Z,6.41
2023-04-03T14:17:03.872Z,6.33
2023-04-03T14:19:34.791Z,6.22
2023-04-03T14:22:17.870Z,6.13
2023-04-03T14:24:47.399Z,6.13
2023-04-03T14:27:21.879Z,6.23
2023-04-03T14:29:51.607Z,6.27
2023-04-03T14:32:24.601Z,6.24
2023-04-03T14:34:54.128Z,6.17
2023-04-03T14:37:25.674Z,6.07
2023-04-03T14:39:54.653Z,5.99
2023-04-03T14:42:31.901Z,5.92
2023-04-03T14:45:01.481Z,5.84
2023-04-03T14:47:32.208Z,5.77
2023-04-03T14:50:02.526Z,5.71
2023-04-03T14:52:36.820Z,5.67
2023-04-03T14:55:08.688Z,5.59
2023-04-03T14:57:36.887Z,5.52
2023-04-03T15:00:08.191Z,5.48
2023-04-03T15:02:38.433Z,5.44
2023-04-03T15:05:09.591Z,5.38
2023-04-03T15:07:41.149Z,5.33
2023-04-03T15:10:12.466Z,5.25
2023-04-03T15:12:40.403Z,5.18
2023-04-03T15:15:09.139Z,5.13
2023-04-03T15:17:37.587Z,5.07
2023-04-03T15:20:17.190Z,5.02
2023-04-03T15:22:45.071Z,4.99
2023-04-03T15:25:13.181Z,4.96
2023-04-03T15:27:44.035Z,4.94
2023-04-03T15:30:18.324Z,4.91
2023-04-03T15:32:46.524Z,4.88
2023-04-03T15:35:14.635Z,4.86
2023-04-03T15:37:42.865Z,4.84
2023-04-03T15:40:11.401Z,4.84
2023-04-03T15:42:40.002Z,4.85
2023-04-03T15:45:08.866Z,4.86
2023-04-03T15:47:36.867Z,4.85
2023-04-03T15:50:07.745Z,4.84
2023-04-03T15:52:35.729Z,4.81
2023-04-03T15:55:04.331Z,4.76
2023-04-03T16:00:05.395Z,4.66
2023-04-03T16:02:35.167Z,4.60
2023-04-03T16:05:03.610Z,4.55
2023-04-03T16:07:31.813Z,4.52
2023-04-03T16:09:59.749Z,4.50
2023-04-03T16:12:27.515Z,4.49
2023-04-03T16:14:55.379Z,4.48
2023-04-03T16:17:23.712Z,4.46
2023-04-03T16:19:51.617Z,4.45
2023-04-03T16:22:19.774Z,4.42
2023-04-03T16:24:47.515Z,4.39
2023-04-03T16:27:15.384Z,4.34
2023-04-03T16:29:43.435Z,4.31
2023-04-03T16:32:11.353Z,4.28
2023-04-03T16:34:41.624Z,4.24
2023-04-03T16:37:10.566Z,4.21
2023-04-03T16:39:38.463Z,4.18
2023-04-03T16:42:06.673Z,4.15
2023-04-03T16:44:34.420Z,4.13
2023-04-03T16:47:03.035Z,4.09
2023-04-03T16:49:33.939Z,4.07
2023-04-03T16:52:03.538Z,4.06
2023-04-03T16:54:32.777Z,4.03
2023-04-03T16:57:01.852Z,4.00
2023-04-03T16:59:29.859Z,3.98
2023-04-03T17:01:58.148Z,3.95
2023-04-03T17:04:27.195Z,3.91
2023-04-03T17:06:56.048Z,3.89
2023-04-03T17:09:24.122Z,3.85
2023-04-03T17:11:52.120Z,3.81
2023-04-03T17:14:19.910Z,3.77
2023-04-03T17:16:47.714Z,3.74
2023-04-03T17:19:17.368Z,3.70
2023-04-03T17:21:46.568Z,3.66
2023-04-03T17:24:15.489Z,3.63
2023-04-03T17:26:44.067Z,3.60
2023-04-03T17:29:12.243Z,3.58
2023-04-03T17:31:40.133Z,3.57
2023-04-03T17:34:12.706Z,3.55
2023-04-03T17:36:41.738Z,3.54
2023-04-03T17:39:10.114Z,3.51
2023-04-03T17:41:38.119Z,3.48
2023-04-03T17:44:07.023Z,3.46
2023-04-03T17:46:35.536Z,3.44
2023-04-03T17:49:05.335Z,3.43
2023-04-03T17:51:36.527Z,3.41
2023-04-03T17:54:04.264Z,3.38
2023-04-03T17:56:32.725Z,3.35
2023-04-03T17:59:00.794Z,3.34
2023-04-03T18:01:32.457Z,3.32
2023-04-03T18:04:03.366Z,3.30
2023-04-03T18:07:02.412Z,3.29
2023-04-03T18:09:33.345Z,3.26
2023-04-03T18:12:04.575Z,3.23
2023-04-03T18:14:35.260Z,3.20
2023-04-03T18:17:03.729Z,3.17
2023-04-03T18:19:32.238Z,3.14
2023-04-03T18:22:04.857Z,3.12
2023-04-03T18:24:35.484Z,3.11
2023-04-03T18:27:10.145Z,3.10
2023-04-03T18:29:40.932Z,3.09
2023-04-03T18:32:12.127Z,3.10
2023-04-03T18:34:40.382Z,3.10
2023-04-03T18:37:08.195Z,3.10
2023-04-03T18:39:36.194Z,3.10
2023-04-03T18:42:10.856Z,3.11
2023-04-03T18:44:41.065Z,3.10
2023-04-03T18:47:09.528Z,3.10
2023-04-03T18:49:40.298Z,3.09
2023-04-03T18:52:08.473Z,3.07
2023-04-03T18:54:37.402Z,3.05
2023-04-03T18:57:05.783Z,3.05
2023-04-03T18:59:34.001Z,3.04
2023-04-03T19:02:02.144Z,3.03
2023-04-03T19:04:31.243Z,3.00
2023-04-03T19:06:59.957Z,2.98
2023-04-03T19:09:28.267Z,2.95
2023-04-03T19:11:56.534Z,2.93
2023-04-03T19:14:24.593Z,2.91
2023-04-03T19:16:52.859Z,2.89
2023-04-03T19:19:20.835Z,2.87
2023-04-03T19:21:48.720Z,2.84
2023-04-03T19:24:16.852Z,2.82
2023-04-03T19:26:44.760Z,2.80
2023-04-03T19:29:12.888Z,2.79
2023-04-03T19:31:41.028Z,2.78
2023-04-03T19:34:09.048Z,2.76
2023-04-03T19:36:37.874Z,2.73
2023-04-03T19:39:06.098Z,2.71
2023-04-03T19:41:36.198Z,2.69
2023-04-03T19:44:07.189Z,2.67
2023-04-03T19:46:36.538Z,2.65
2023-04-03T19:49:05.096Z,2.63
2023-04-03T19:51:33.594Z,2.63
2023-04-03T19:54:01.435Z,2.62
2023-04-03T19:56:29.853Z,2.60
2023-04-03T19:58:57.955Z,2.59
2023-04-03T20:01:27.847Z,2.58
2023-04-03T20:03:55.725Z,2.56
2023-04-03T20:06:24.192Z,2.56
2023-04-03T20:08:52.180Z,2.55
2023-04-03T20:11:21.055Z,2.53
2023-04-03T20:13:53.113Z,2.51
2023-04-03T20:16:26.038Z,2.50
2023-04-03T20:18:57.026Z,2.48
2023-04-03T20:21:30.595Z,2.47
2023-04-03T20:23:59.742Z,2.46
2023-04-03T20:26:29.831Z,2.44
2023-04-03T20:29:00.329Z,2.42
2023-04-03T20:31:29.710Z,2.40
2023-04-03T20:33:57.532Z,2.38
2023-04-03T20:36:28.399Z,2.36
2023-04-03T20:38:56.321Z,2.35
2023-04-03T20:41:24.941Z,2.34
2023-04-03T20:43:53.715Z,2.33
2023-04-03T20:46:22.945Z,2.33
2023-04-03T20:48:50.708Z,2.33
2023-04-03T20:51:20.115Z,2.31
2023-04-03T20:53:48.385Z,2.31
2023-04-03T20:56:16.872Z,2.30
2023-04-03T20:58:46.160Z,2.27
2023-04-03T21:01:17.169Z,2.24
2023-04-03T21:03:46.378Z,2.22
2023-04-03T21:06:52.107Z,2.20
2023-04-03T21:09:57.510Z,2.17
2023-04-03T21:13:03.339Z,2.13
2023-04-03T21:15:49.713Z,2.09
2023-04-03T21:18:23.585Z,2.04
2023-04-03T21:20:51.385Z,2.00
2023-04-03T21:23:20.430Z,1.96
2023-04-03T21:28:26.829Z,1.85
2023-04-03T21:30:53.278Z,1.82
2023-04-03T21:33:19.767Z,1.76
2023-04-03T21:35:46.303Z,1.72
2023-04-03T21:38:14.691Z,1.67
2023-04-03T21:40:41.355Z,1.64
2023-04-03T21:43:08.067Z,1.59
2023-04-03T21:45:34.651Z,1.55
2023-04-03T21:48:03.245Z,1.51
2023-04-03T21:50:29.631Z,1.47
2023-04-03T21:52:56.904Z,1.44
2023-04-03T21:55:23.219Z,1.41
2023-04-03T21:57:51.807Z,1.37
2023-04-03T22:00:19.398Z,1.33
2023-04-03T22:02:46.355Z,1.30
2023-04-03T22:05:12.789Z,1.26
2023-04-03T22:07:39.184Z,1.24
2023-04-03T22:10:05.851Z,1.20
2023-04-03T22:12:32.160Z,1.17
2023-04-03T22:14:58.583Z,1.14
2023-04-03T22:17:25.335Z,1.10
2023-04-03T22:19:51.758Z,1.07
2023-04-03T22:22:18.182Z,1.05
2023-04-03T22:24:44.927Z,1.02
2023-04-03T22:27:12.342Z,1.00
2023-04-03T22:29:38.742Z,0.97
2023-04-03T22:32:05.324Z,0.96
2023-04-03T22:34:37.608Z,0.95
2023-04-03T22:37:03.966Z,0.92
2023-04-03T22:39:30.471Z,0.90
2023-04-03T22:41:56.775Z,0.88
2023-04-03T22:44:24.279Z,0.88
2023-04-03T22:46:52.163Z,1.14
2023-04-03T22:49:18.802Z,1.19
2023-04-03T22:51:45.123Z,1.17
2023-04-03T22:54:11.469Z,1.14
2023-04-03T22:56:37.965Z,1.13
2023-04-03T22:59:04.361Z,1.12
2023-04-03T23:01:30.804Z,1.10
2023-04-03T23:03:57.500Z,1.08
2023-04-03T23:06:23.896Z,1.07
2023-04-03T23:08:50.288Z,1.05
2023-04-03T23:11:16.589Z,1.05
2023-04-03T23:13:43.206Z,1.04
2023-04-03T23:16:09.587Z,1.05
2023-04-03T23:18:38.931Z,1.03
2023-04-03T23:21:07.195Z,1.01
2023-04-03T23:23:33.866Z,1.16
2023-04-03T23:26:01.803Z,2.23
2023-04-03T23:28:29.060Z,4.88
2023-04-03T23:31:03.254Z,6.84
2023-04-03T23:33:30.819Z,6.96
2023-04-03T23:35:58.787Z,5.53
2023-04-03T23:38:25.632Z,4.36
2023-04-03T23:40:52.089Z,3.45
2023-04-03T23:43:18.471Z,2.81
2023-04-03T23:45:45.123Z,2.35
2023-04-03T23:48:11.496Z,1.99
2023-04-03T23:50:38.264Z,1.69
2023-04-03T23:53:04.795Z,1.42
2023-04-03T23:55:31.123Z,1.19
2023-04-03T23:57:57.449Z,1.01
